sensor_id;sensor_type;location;lat;lon;timestamp;pressure;altitude;pressure_sealevel;temperature
70123;BMP280;57489;37.404;24.920;2024-03-06T00:00:07;99895.34;;;18.59
70123;BMP280;57489;37.404;24.920;2024-03-06T00:05:09;99886.94;;;18.57
70123;BMP280;57489;37.404;24.920;2024-03-06T00:10:13;99894.41;;;18.55
70123;BMP280;57489;37.404;24.920;2024-03-06T00:15:15;99907.56;;;18.52
70123;BMP280;57489;37.404;24.920;2024-03-06T00:20:17;99907.84;;;18.50
70123;BMP280;57489;37.404;24.920;2024-03-06T00:25:20;99916.47;;;18.47
70123;BMP280;57489;37.404;24.920;2024-03-06T00:30:22;99908.50;;;18.47
70123;BMP280;57489;37.404;24.920;2024-03-06T00:35:24;99909.09;;;18.44
70123;BMP280;57489;37.404;24.920;2024-03-06T00:40:28;99919.28;;;18.42
70123;BMP280;57489;37.404;24.920;2024-03-06T00:45:31;99910.84;;;18.40
70123;BMP280;57489;37.404;24.920;2024-03-06T00:50:33;99916.47;;;18.39
70123;BMP280;57489;37.404;24.920;2024-03-06T00:55:37;99910.66;;;18.37
70123;BMP280;57489;37.404;24.920;2024-03-06T01:00:39;99918.97;;;18.35
70123;BMP280;57489;37.404;24.920;2024-03-06T01:05:42;99914.72;;;18.34
70123;BMP280;57489;37.404;24.920;2024-03-06T01:10:45;99907.09;;;18.32
70123;BMP280;57489;37.404;24.920;2024-03-06T01:15:47;99910.06;;;18.31
70123;BMP280;57489;37.404;24.920;2024-03-06T01:20:49;99913.81;;;18.30
70123;BMP280;57489;37.404;24.920;2024-03-06T01:25:52;99910.69;;;18.28
70123;BMP280;57489;37.404;24.920;2024-03-06T01:30:54;99915.22;;;18.27
70123;BMP280;57489;37.404;24.920;2024-03-06T01:35:56;99928.78;;;18.26
70123;BMP280;57489;37.404;24.920;2024-03-06T01:41:00;99940.19;;;18.26
70123;BMP280;57489;37.404;24.920;2024-03-06T01:46:02;99938.97;;;18.24
70123;BMP280;57489;37.404;24.920;2024-03-06T01:51:04;99950.69;;;18.23
70123;BMP280;57489;37.404;24.920;2024-03-06T01:56:08;99951.47;;;18.23
70123;BMP280;57489;37.404;24.920;2024-03-06T02:01:16;99941.63;;;18.24
70123;BMP280;57489;37.404;24.920;2024-03-06T02:06:19;99945.19;;;18.19
70123;BMP280;57489;37.404;24.920;2024-03-06T02:11:23;99949.72;;;18.19
70123;BMP280;57489;37.404;24.920;2024-03-06T02:16:25;99959.59;;;18.18
70123;BMP280;57489;37.404;24.920;2024-03-06T02:21:29;99961.75;;;18.16
70123;BMP280;57489;37.404;24.920;2024-03-06T02:26:31;99970.03;;;18.15
70123;BMP280;57489;37.404;24.920;2024-03-06T02:31:32;99983.91;;;18.12
70123;BMP280;57489;37.404;24.920;2024-03-06T02:36:36;99981.75;;;18.14
70123;BMP280;57489;37.404;24.920;2024-03-06T02:41:38;99979.69;;;18.11
70123;BMP280;57489;37.404;24.920;2024-03-06T02:46:40;99985.00;;;18.11
70123;BMP280;57489;37.404;24.920;2024-03-06T02:51:43;99976.25;;;18.10
70123;BMP280;57489;37.404;24.920;2024-03-06T02:56:46;99988.75;;;18.10
70123;BMP280;57489;37.404;24.920;2024-03-06T03:01:48;99992.50;;;18.09
70123;BMP280;57489;37.404;24.920;2024-03-06T03:06:51;99994.69;;;18.06
70123;BMP280;57489;37.404;24.920;2024-03-06T03:11:53;99993.91;;;18.06
70123;BMP280;57489;37.404;24.920;2024-03-06T03:16:55;99998.44;;;18.05
70123;BMP280;57489;37.404;24.920;2024-03-06T03:21:58;100000.63;;;18.03
70123;BMP280;57489;37.404;24.920;2024-03-06T03:27:00;100006.72;;;18.04
70123;BMP280;57489;37.404;24.920;2024-03-06T03:32:03;100005.44;;;18.01
70123;BMP280;57489;37.404;24.920;2024-03-06T03:37:07;100003.09;;;18.00
70123;BMP280;57489;37.404;24.920;2024-03-06T03:42:09;100010.28;;;17.99
70123;BMP280;57489;37.404;24.920;2024-03-06T03:47:11;100009.81;;;17.97
70123;BMP280;57489;37.404;24.920;2024-03-06T03:52:15;100022.59;;;17.95
70123;BMP280;57489;37.404;24.920;2024-03-06T03:57:17;100033.22;;;17.95
70123;BMP280;57489;37.404;24.920;2024-03-06T04:02:19;100023.69;;;17.94
70123;BMP280;57489;37.404;24.920;2024-03-06T04:07:22;100033.53;;;17.94
70123;BMP280;57489;37.404;24.920;2024-03-06T04:12:24;100031.97;;;17.93
70123;BMP280;57489;37.404;24.920;2024-03-06T04:17:26;100032.28;;;17.91
70123;BMP280;57489;37.404;24.920;2024-03-06T04:22:30;100038.03;;;17.93
70123;BMP280;57489;37.404;24.920;2024-03-06T04:27:32;100045.53;;;17.91
70123;BMP280;57489;37.404;24.920;2024-03-06T04:32:34;100050.84;;;17.91
70123;BMP280;57489;37.404;24.920;2024-03-06T04:37:38;100048.19;;;17.91
70123;BMP280;57489;37.404;24.920;2024-03-06T04:42:40;100043.19;;;17.90
70123;BMP280;57489;37.404;24.920;2024-03-06T04:47:42;100050.03;;;17.91
70123;BMP280;57489;37.404;24.920;2024-03-06T04:52:45;100049.28;;;17.90
70123;BMP280;57489;37.404;24.920;2024-03-06T04:57:48;100068.34;;;17.92
70123;BMP280;57489;37.404;24.920;2024-03-06T05:02:50;100064.59;;;17.93
70123;BMP280;57489;37.404;24.920;2024-03-06T05:07:53;100069.13;;;17.93
70123;BMP280;57489;37.404;24.920;2024-03-06T05:12:55;100079.13;;;17.96
70123;BMP280;57489;37.404;24.920;2024-03-06T05:17:57;100081.47;;;17.97
70123;BMP280;57489;37.404;24.920;2024-03-06T05:23:04;100086.97;;;18.01
70123;BMP280;57489;37.404;24.920;2024-03-06T05:28:06;100103.47;;;18.29
70123;BMP280;57489;37.404;24.920;2024-03-06T05:33:08;100111.13;;;18.39
70123;BMP280;57489;37.404;24.920;2024-03-06T05:38:12;100121.31;;;18.46
70123;BMP280;57489;37.404;24.920;2024-03-06T05:43:14;100123.53;;;18.52
70123;BMP280;57489;37.404;24.920;2024-03-06T05:48:16;100130.06;;;18.46
70123;BMP280;57489;37.404;24.920;2024-03-06T05:53:20;100143.38;;;18.55
70123;BMP280;57489;37.404;24.920;2024-03-06T05:58:22;100151.44;;;18.81
70123;BMP280;57489;37.404;24.920;2024-03-06T06:03:24;100143.63;;;18.93
70123;BMP280;57489;37.404;24.920;2024-03-06T06:08:28;100144.72;;;19.01
70123;BMP280;57489;37.404;24.920;2024-03-06T06:13:30;100151.28;;;19.12
70123;BMP280;57489;37.404;24.920;2024-03-06T06:18:32;100149.84;;;19.15
70123;BMP280;57489;37.404;24.920;2024-03-06T06:23:35;100152.03;;;18.95
70123;BMP280;57489;37.404;24.920;2024-03-06T06:28:40;100154.09;;;19.24
70123;BMP280;57489;37.404;24.920;2024-03-06T06:33:42;100167.25;;;19.38
70123;BMP280;57489;37.404;24.920;2024-03-06T06:38:48;100192.47;;;19.49
70123;BMP280;57489;37.404;24.920;2024-03-06T06:43:50;100199.47;;;19.62
70123;BMP280;57489;37.404;24.920;2024-03-06T06:48:53;100199.16;;;19.38
70123;BMP280;57489;37.404;24.920;2024-03-06T06:53:56;100209.81;;;19.29
70123;BMP280;57489;37.404;24.920;2024-03-06T06:58:58;100216.06;;;19.42
70123;BMP280;57489;37.404;24.920;2024-03-06T07:04:01;100222.81;;;19.48
70123;BMP280;57489;37.404;24.920;2024-03-06T07:09:05;100212.94;;;19.66
70123;BMP280;57489;37.404;24.920;2024-03-06T07:14:09;100219.63;;;19.81
70123;BMP280;57489;37.404;24.920;2024-03-06T07:19:12;100219.31;;;19.91
70123;BMP280;57489;37.404;24.920;2024-03-06T07:24:16;100220.56;;;20.02
70123;BMP280;57489;37.404;24.920;2024-03-06T07:29:18;100234.19;;;20.01
70123;BMP280;57489;37.404;24.920;2024-03-06T07:34:20;100236.06;;;19.92
70123;BMP280;57489;37.404;24.920;2024-03-06T07:39:24;100245.66;;;19.93
70123;BMP280;57489;37.404;24.920;2024-03-06T07:44:27;100252.28;;;20.16
70123;BMP280;57489;37.404;24.920;2024-03-06T07:49:29;100253.94;;;20.38
70123;BMP280;57489;37.404;24.920;2024-03-06T07:54:32;100267.53;;;19.98
70123;BMP280;57489;37.404;24.920;2024-03-06T07:59:34;100264.16;;;19.80
70123;BMP280;57489;37.404;24.920;2024-03-06T08:04:37;100273.50;;;19.95
70123;BMP280;57489;37.404;24.920;2024-03-06T08:09:40;100267.66;;;20.19
70123;BMP280;57489;37.404;24.920;2024-03-06T08:14:43;100273.03;;;20.10
70123;BMP280;57489;37.404;24.920;2024-03-06T08:25:39;100282.28;;;19.87
70123;BMP280;57489;37.404;24.920;2024-03-06T08:30:41;100284.97;;;19.61
70123;BMP280;57489;37.404;24.920;2024-03-06T08:35:44;100288.06;;;19.46
70123;BMP280;57489;37.404;24.920;2024-03-06T08:40:48;100286.50;;;19.36
70123;BMP280;57489;37.404;24.920;2024-03-06T08:45:51;100297.47;;;19.34
70123;BMP280;57489;37.404;24.920;2024-03-06T08:50:53;100306.38;;;19.30
70123;BMP280;57489;37.404;24.920;2024-03-06T08:55:57;100309.00;;;19.21
70123;BMP280;57489;37.404;24.920;2024-03-06T09:01:00;100309.13;;;19.07
70123;BMP280;57489;37.404;24.920;2024-03-06T09:06:02;100315.03;;;19.04
70123;BMP280;57489;37.404;24.920;2024-03-06T09:11:06;100313.50;;;19.03
70123;BMP280;57489;37.404;24.920;2024-03-06T09:16:09;100319.75;;;19.07
70123;BMP280;57489;37.404;24.920;2024-03-06T09:21:10;100319.13;;;19.02
70123;BMP280;57489;37.404;24.920;2024-03-06T09:26:14;100324.75;;;19.00
70123;BMP280;57489;37.404;24.920;2024-03-06T09:31:16;100323.38;;;19.03
70123;BMP280;57489;37.404;24.920;2024-03-06T09:36:18;100331.63;;;19.01
70123;BMP280;57489;37.404;24.920;2024-03-06T09:41:22;100330.84;;;19.01
70123;BMP280;57489;37.404;24.920;2024-03-06T09:46:25;100339.97;;;19.08
70123;BMP280;57489;37.404;24.920;2024-03-06T09:51:29;100347.50;;;19.15
70123;BMP280;57489;37.404;24.920;2024-03-06T09:56:33;100340.78;;;19.18
70123;BMP280;57489;37.404;24.920;2024-03-06T10:01:40;100340.00;;;19.26
70123;BMP280;57489;37.404;24.920;2024-03-06T10:06:43;100345.19;;;19.31
70123;BMP280;57489;37.404;24.920;2024-03-06T10:11:48;100336.47;;;19.39
70123;BMP280;57489;37.404;24.920;2024-03-06T10:16:53;100341.50;;;19.49
70123;BMP280;57489;37.404;24.920;2024-03-06T10:21:57;100334.44;;;19.45
70123;BMP280;57489;37.404;24.920;2024-03-06T10:27:00;100340.34;;;19.42
70123;BMP280;57489;37.404;24.920;2024-03-06T10:32:03;100334.88;;;19.38
70123;BMP280;57489;37.404;24.920;2024-03-06T10:37:05;100342.38;;;19.36
70123;BMP280;57489;37.404;24.920;2024-03-06T10:42:12;100335.31;;;19.31
70123;BMP280;57489;37.404;24.920;2024-03-06T10:47:15;100336.09;;;19.32
70123;BMP280;57489;37.404;24.920;2024-03-06T10:52:18;100330.78;;;19.32
70123;BMP280;57489;37.404;24.920;2024-03-06T10:57:23;100326.72;;;19.26
70123;BMP280;57489;37.404;24.920;2024-03-06T11:02:27;100322.00;;;19.31
70123;BMP280;57489;37.404;24.920;2024-03-06T11:07:30;100313.75;;;19.42
70123;BMP280;57489;37.404;24.920;2024-03-06T11:12:35;100322.84;;;19.49
70123;BMP280;57489;37.404;24.920;2024-03-06T11:17:38;100322.66;;;19.63
70123;BMP280;57489;37.404;24.920;2024-03-06T11:23:02;100321.16;;;19.88
70123;BMP280;57489;37.404;24.920;2024-03-06T11:28:11;100309.84;;;20.08
70123;BMP280;57489;37.404;24.920;2024-03-06T11:33:19;100302.50;;;19.79
70123;BMP280;57489;37.404;24.920;2024-03-06T11:38:21;100304.53;;;19.74
70123;BMP280;57489;37.404;24.920;2024-03-06T11:43:29;100293.88;;;19.74
70123;BMP280;57489;37.404;24.920;2024-03-06T11:48:32;100296.41;;;19.79
70123;BMP280;57489;37.404;24.920;2024-03-06T11:53:34;100303.75;;;19.73
70123;BMP280;57489;37.404;24.920;2024-03-06T11:58:38;100309.22;;;19.77
70123;BMP280;57489;37.404;24.920;2024-03-06T12:03:41;100307.50;;;19.81
70123;BMP280;57489;37.404;24.920;2024-03-06T12:08:44;100298.56;;;19.94
70123;BMP280;57489;37.404;24.920;2024-03-06T12:13:48;100302.66;;;19.83
70123;BMP280;57489;37.404;24.920;2024-03-06T12:18:54;100306.41;;;19.82
70123;BMP280;57489;37.404;24.920;2024-03-06T12:24:04;100303.88;;;19.94
70123;BMP280;57489;37.404;24.920;2024-03-06T12:29:09;100311.28;;;19.88
70123;BMP280;57489;37.404;24.920;2024-03-06T12:34:14;100308.09;;;20.12
70123;BMP280;57489;37.404;24.920;2024-03-06T12:39:18;100323.13;;;20.26
70123;BMP280;57489;37.404;24.920;2024-03-06T12:44:24;100320.16;;;20.27
70123;BMP280;57489;37.404;24.920;2024-03-06T12:49:27;100323.59;;;20.28
70123;BMP280;57489;37.404;24.920;2024-03-06T12:54:29;100324.19;;;20.42
70123;BMP280;57489;37.404;24.920;2024-03-06T12:59:32;100327.63;;;20.51
70123;BMP280;57489;37.404;24.920;2024-03-06T13:04:34;100323.84;;;20.52
70123;BMP280;57489;37.404;24.920;2024-03-06T13:09:36;100325.28;;;20.50
70123;BMP280;57489;37.404;24.920;2024-03-06T13:14:41;100324.50;;;20.49
70123;BMP280;57489;37.404;24.920;2024-03-06T13:19:43;100323.72;;;20.49
70123;BMP280;57489;37.404;24.920;2024-03-06T13:24:45;100315.06;;;20.43
70123;BMP280;57489;37.404;24.920;2024-03-06T13:29:48;100306.00;;;20.44
70123;BMP280;57489;37.404;24.920;2024-03-06T13:34:51;100309.44;;;20.53
70123;BMP280;57489;37.404;24.920;2024-03-06T13:39:53;100308.78;;;20.56
70123;BMP280;57489;37.404;24.920;2024-03-06T13:45:03;100307.72;;;20.49
70123;BMP280;57489;37.404;24.920;2024-03-06T13:50:07;100300.03;;;20.38
70123;BMP280;57489;37.404;24.920;2024-03-06T13:55:10;100301.34;;;20.24
70123;BMP280;57489;37.404;24.920;2024-03-06T14:00:15;100303.69;;;20.16
70123;BMP280;57489;37.404;24.920;2024-03-06T14:05:18;100306.72;;;20.06
70123;BMP280;57489;37.404;24.920;2024-03-06T14:10:25;100314.88;;;20.01
70123;BMP280;57489;37.404;24.920;2024-03-06T14:15:28;100309.41;;;19.98
70123;BMP280;57489;37.404;24.920;2024-03-06T14:20:30;100305.31;;;19.92
70123;BMP280;57489;37.404;24.920;2024-03-06T14:25:33;100303.25;;;19.97
70123;BMP280;57489;37.404;24.920;2024-03-06T14:30:39;100301.06;;;19.99
70123;BMP280;57489;37.404;24.920;2024-03-06T14:35:44;100305.47;;;19.95
70123;BMP280;57489;37.404;24.920;2024-03-06T14:40:49;100301.56;;;19.93
70123;BMP280;57489;37.404;24.920;2024-03-06T14:45:53;100312.53;;;20.55
70123;BMP280;57489;37.404;24.920;2024-03-06T14:50:55;100304.59;;;21.06
70123;BMP280;57489;37.404;24.920;2024-03-06T14:55:57;100301.72;;;21.19
70123;BMP280;57489;37.404;24.920;2024-03-06T15:01:00;100295.72;;;21.43
70123;BMP280;57489;37.404;24.920;2024-03-06T15:06:03;100296.81;;;21.63
70123;BMP280;57489;37.404;24.920;2024-03-06T15:11:06;100301.38;;;21.42
70123;BMP280;57489;37.404;24.920;2024-03-06T15:16:09;100300.19;;;21.31
70123;BMP280;57489;37.404;24.920;2024-03-06T15:21:11;100301.13;;;21.35
70123;BMP280;57489;37.404;24.920;2024-03-06T15:26:13;100309.50;;;21.33
70123;BMP280;57489;37.404;24.920;2024-03-06T15:31:17;100309.31;;;21.30
70123;BMP280;57489;37.404;24.920;2024-03-06T15:36:19;100311.53;;;21.28
70123;BMP280;57489;37.404;24.920;2024-03-06T15:41:21;100311.41;;;21.24
70123;BMP280;57489;37.404;24.920;2024-03-06T15:46:25;100320.06;;;21.21
70123;BMP280;57489;37.404;24.920;2024-03-06T15:51:27;100316.97;;;21.10
70123;BMP280;57489;37.404;24.920;2024-03-06T15:56:31;100322.22;;;20.98
70123;BMP280;57489;37.404;24.920;2024-03-06T16:01:34;100325.69;;;20.99
70123;BMP280;57489;37.404;24.920;2024-03-06T16:06:36;100332.44;;;20.96
70123;BMP280;57489;37.404;24.920;2024-03-06T16:11:38;100325.56;;;20.95
70123;BMP280;57489;37.404;24.920;2024-03-06T16:16:42;100329.97;;;20.91
70123;BMP280;57489;37.404;24.920;2024-03-06T16:21:45;100338.16;;;20.86
70123;BMP280;57489;37.404;24.920;2024-03-06T16:26:47;100334.06;;;20.80
70123;BMP280;57489;37.404;24.920;2024-03-06T16:31:50;100338.16;;;20.77
70123;BMP280;57489;37.404;24.920;2024-03-06T16:36:52;100347.88;;;20.82
70123;BMP280;57489;37.404;24.920;2024-03-06T16:41:54;100344.47;;;20.73
70123;BMP280;57489;37.404;24.920;2024-03-06T16:46:58;100351.53;;;20.68
70123;BMP280;57489;37.404;24.920;2024-03-06T16:52:00;100356.13;;;20.59
70123;BMP280;57489;37.404;24.920;2024-03-06T16:57:02;100355.06;;;20.52
70123;BMP280;57489;37.404;24.920;2024-03-06T17:02:06;100360.50;;;20.55
70123;BMP280;57489;37.404;24.920;2024-03-06T17:07:08;100361.25;;;20.00
70123;BMP280;57489;37.404;24.920;2024-03-06T17:12:10;100357.78;;;19.74
70123;BMP280;57489;37.404;24.920;2024-03-06T17:17:14;100360.28;;;19.61
70123;BMP280;57489;37.404;24.920;2024-03-06T17:22:16;100362.13;;;19.52
70123;BMP280;57489;37.404;24.920;2024-03-06T17:27:18;100368.25;;;19.44
70123;BMP280;57489;37.404;24.920;2024-03-06T17:32:21;100369.94;;;19.40
70123;BMP280;57489;37.404;24.920;2024-03-06T17:37:25;100374.91;;;19.33
70123;BMP280;57489;37.404;24.920;2024-03-06T17:42:27;100374.63;;;19.43
70123;BMP280;57489;37.404;24.920;2024-03-06T17:47:31;100388.47;;;19.62
70123;BMP280;57489;37.404;24.920;2024-03-06T17:52:34;100390.94;;;19.68
70123;BMP280;57489;37.404;24.920;2024-03-06T17:57:36;100395.06;;;19.74
70123;BMP280;57489;37.404;24.920;2024-03-06T18:02:41;100388.16;;;19.73
70123;BMP280;57489;37.404;24.920;2024-03-06T18:07:43;100390.63;;;19.60
70123;BMP280;57489;37.404;24.920;2024-03-06T18:12:48;100396.28;;;19.68
70123;BMP280;57489;37.404;24.920;2024-03-06T18:17:52;100389.53;;;19.44
70123;BMP280;57489;37.404;24.920;2024-03-06T18:22:54;100396.38;;;19.45
70123;BMP280;57489;37.404;24.920;2024-03-06T18:27:57;100393.72;;;19.45
70123;BMP280;57489;37.404;24.920;2024-03-06T18:33:00;100394.50;;;19.37
70123;BMP280;57489;37.404;24.920;2024-03-06T18:38:03;100400.75;;;19.41
70123;BMP280;57489;37.404;24.920;2024-03-06T18:43:06;100398.09;;;19.41
70123;BMP280;57489;37.404;24.920;2024-03-06T18:48:10;100410.78;;;19.35
70123;BMP280;57489;37.404;24.920;2024-03-06T18:53:12;100407.00;;;19.36
70123;BMP280;57489;37.404;24.920;2024-03-06T18:58:14;100410.97;;;19.39
70123;BMP280;57489;37.404;24.920;2024-03-06T19:03:18;100418.69;;;19.67
70123;BMP280;57489;37.404;24.920;2024-03-06T19:08:20;100409.97;;;20.01
70123;BMP280;57489;37.404;24.920;2024-03-06T19:13:22;100406.66;;;20.04
70123;BMP280;57489;37.404;24.920;2024-03-06T19:18:26;100410.41;;;20.11
70123;BMP280;57489;37.404;24.920;2024-03-06T19:23:29;100417.97;;;20.01
70123;BMP280;57489;37.404;24.920;2024-03-06T19:28:31;100413.44;;;19.93
70123;BMP280;57489;37.404;24.920;2024-03-06T19:33:35;100418.56;;;19.89
70123;BMP280;57489;37.404;24.920;2024-03-06T19:38:37;100416.53;;;19.86
70123;BMP280;57489;37.404;24.920;2024-03-06T19:43:39;100422.50;;;19.92
70123;BMP280;57489;37.404;24.920;2024-03-06T19:48:43;100420.44;;;19.97
70123;BMP280;57489;37.404;24.920;2024-03-06T19:53:45;100420.50;;;20.14
70123;BMP280;57489;37.404;24.920;2024-03-06T19:58:48;100422.50;;;20.43
70123;BMP280;57489;37.404;24.920;2024-03-06T20:03:51;100422.66;;;20.12
70123;BMP280;57489;37.404;24.920;2024-03-06T20:08:55;100438.16;;;20.02
70123;BMP280;57489;37.404;24.920;2024-03-06T20:13:57;100438.63;;;19.95
70123;BMP280;57489;37.404;24.920;2024-03-06T20:19:01;100438.03;;;19.50
70123;BMP280;57489;37.404;24.920;2024-03-06T20:24:03;100446.44;;;19.26
70123;BMP280;57489;37.404;24.920;2024-03-06T20:29:08;100441.06;;;19.17
70123;BMP280;57489;37.404;24.920;2024-03-06T20:34:11;100435.72;;;19.08
70123;BMP280;57489;37.404;24.920;2024-03-06T20:39:15;100439.56;;;19.02
70123;BMP280;57489;37.404;24.920;2024-03-06T20:44:17;100444.72;;;18.99
70123;BMP280;57489;37.404;24.920;2024-03-06T20:49:21;100438.53;;;19.52
70123;BMP280;57489;37.404;24.920;2024-03-06T20:54:23;100449.53;;;19.68
70123;BMP280;57489;37.404;24.920;2024-03-06T20:59:25;100440.78;;;19.67
70123;BMP280;57489;37.404;24.920;2024-03-06T21:04:29;100443.72;;;19.66
70123;BMP280;57489;37.404;24.920;2024-03-06T21:09:31;100449.19;;;19.60
70123;BMP280;57489;37.404;24.920;2024-03-06T21:14:35;100442.13;;;19.56
70123;BMP280;57489;37.404;24.920;2024-03-06T21:19:39;100448.41;;;19.60
70123;BMP280;57489;37.404;24.920;2024-03-06T21:24:42;100437.44;;;19.53
70123;BMP280;57489;37.404;24.920;2024-03-06T21:29:45;100440.41;;;19.51
70123;BMP280;57489;37.404;24.920;2024-03-06T21:34:49;100443.00;;;19.34
70123;BMP280;57489;37.404;24.920;2024-03-06T21:39:51;100447.84;;;19.32
70123;BMP280;57489;37.404;24.920;2024-03-06T21:44:54;100439.19;;;19.57
70123;BMP280;57489;37.404;24.920;2024-03-06T21:49:57;100445.75;;;19.51
70123;BMP280;57489;37.404;24.920;2024-03-06T21:55:00;100447.13;;;19.40
70123;BMP280;57489;37.404;24.920;2024-03-06T22:00:02;100444.59;;;19.44
70123;BMP280;57489;37.404;24.920;2024-03-06T22:05:07;100440.09;;;19.44
70123;BMP280;57489;37.404;24.920;2024-03-06T22:10:09;100446.47;;;19.43
70123;BMP280;57489;37.404;24.920;2024-03-06T22:15:11;100444.38;;;19.62
70123;BMP280;57489;37.404;24.920;2024-03-06T22:20:15;100434.66;;;19.58
70123;BMP280;57489;37.404;24.920;2024-03-06T22:25:18;100428.03;;;19.47
70123;BMP280;57489;37.404;24.920;2024-03-06T22:30:20;100429.53;;;19.30
70123;BMP280;57489;37.404;24.920;2024-03-06T22:35:24;100420.66;;;19.35
70123;BMP280;57489;37.404;24.920;2024-03-06T22:40:26;100423.44;;;19.30
70123;BMP280;57489;37.404;24.920;2024-03-06T22:45:30;100420.59;;;19.26
70123;BMP280;57489;37.404;24.920;2024-03-06T22:50:33;100415.41;;;18.90
70123;BMP280;57489;37.404;24.920;2024-03-06T22:55:36;100412.72;;;18.81
70123;BMP280;57489;37.404;24.920;2024-03-06T23:00:39;100419.06;;;18.72
70123;BMP280;57489;37.404;24.920;2024-03-06T23:05:44;100409.63;;;18.66
70123;BMP280;57489;37.404;24.920;2024-03-06T23:10:46;100412.41;;;18.61
70123;BMP280;57489;37.404;24.920;2024-03-06T23:15:49;100418.34;;;18.57
70123;BMP280;57489;37.404;24.920;2024-03-06T23:20:52;100423.78;;;18.52
70123;BMP280;57489;37.404;24.920;2024-03-06T23:25:55;100418.59;;;18.47
70123;BMP280;57489;37.404;24.920;2024-03-06T23:30:57;100419.16;;;18.44
70123;BMP280;57489;37.404;24.920;2024-03-06T23:36:01;100418.22;;;18.40
70123;BMP280;57489;37.404;24.920;2024-03-06T23:41:03;100413.53;;;18.37
70123;BMP280;57489;37.404;24.920;2024-03-06T23:46:06;100409.88;;;18.33
70123;BMP280;57489;37.404;24.920;2024-03-06T23:51:09;100404.06;;;18.31
70123;BMP280;57489;37.404;24.920;2024-03-06T23:56:12;100406.25;;;18.29
